16°C
Porth, Newquay, Cornwall. UK  Tell A Friend
 Ad **Ad
Updated25/06/2017 21:30 
 


More METAR Reports From


Metar Station     Metar Station     Metar Station     Metar Station     Metar Station
EGBB Birmingham     EGBE Coventry     EGLL London Heathrow     EGKK London Gatwick     EGGP Liverpool
EGGW Luton     EGNX East Midlands     EGLC London City     EGCC Mancester Intl     EGSS Stanstead
Local Metars Here                                
EGBB - Birmingham Airpo, United Kingdom
Updated: 25/06/2017 21:20
Partly Cloudy
Partly Cloudy
 Wind from NW
Wind: NW 9 mph , 15 km/h, 8 kts
Temperature: 15°C
Dew Point: 8°C
Humidity: 63%
Barometer: 1013 hPa
Clouds: Partly Cloudy
Visibility: 6 miles , 10 km
Cloud details: Partly Cloudy 975 m
2017/06/25 20:20 EGBB 252020Z 32008KT 9999 SCT032 15/08 Q1013
EGBE - Coventry Airport, United Kingdom
Updated: 25/06/2017 17:50

NOT Current
Nearby showers, Few clouds
Nearby showers, Few clouds
 Wind from NNW
Wind: NNW 14 mph , 22 km/h, 12 kts
Temperature: 18°C
Dew Point: 14°C
Humidity: 78%
Barometer: 1011 hPa
Summary: Nearby Showers
Clouds: Few Clouds
Visibility: 6 miles , 10 km
Cloud details: Few Clouds 610 m
Partly Cloudy 884 m
Few Clouds 975 m
2017/06/25 16:50 EGBE 251650Z 33012KT 300V010 9999 VCSH FEW020 SCT029 FEW032CB 18/14 Q1011
 
EGLL - London/Heathrow, United Kingdom
Updated: 25/06/2017 21:20
Clear
Clear
 Wind from W
Wind: W 12 mph , 19 km/h, 10 kts
Temperature: 18°C
Dew Point: 12°C
Humidity: 68%
Barometer: 1013 hPa
Clouds: Clear
Visibility: 6 miles , 10 km
2017/06/25 20:20 EGLL 252020Z AUTO 28010KT 9999 NCD 18/12 Q1013 NOSIG
EGKK - London/Gatwick A, United Kingdom
Updated: 25/06/2017 21:20
Few Clouds
Few Clouds
 Wind from W
Wind: W 12 mph , 19 km/h, 10 kts
Temperature: 18°C
Dew Point: 12°C
Humidity: 68%
Barometer: 1013 hPa
Clouds: Few Clouds
Visibility: 6 miles , 10 km
Cloud details: Few Clouds 1219 m
2017/06/25 20:20 EGKK 252020Z 28010KT 9999 FEW040 18/12 Q1013
 
EGGP - Liverpool Airpor, United Kingdom
Updated: 25/06/2017 21:20
Few Clouds
Few Clouds
 Wind from WNW
Wind: WNW 12 mph , 19 km/h, 10 kts
Temperature: 15°C
Dew Point: 8°C
Humidity: 63%
Barometer: 1013 hPa
Clouds: Few Clouds
Visibility: 6 miles , 10 km
Cloud details: Few Clouds 975 m
2017/06/25 20:20 EGGP 252020Z 29010KT 9999 FEW032 15/08 Q1013
EGGW - Luton Airport, United Kingdom
Updated: 25/06/2017 21:20
Overcast
Overcast
 Wind from NW
Wind: NW 13 mph , 20 km/h, 11 kts
Temperature: 16°C
Dew Point: 12°C
Humidity: 77%
Barometer: 1013 hPa
Clouds: Overcast
Visibility: 6 miles , 10 km
Cloud details: Partly Cloudy 518 m
Overcast 1158 m
2017/06/25 20:20 EGGW 252020Z AUTO 32011KT 9999 SCT017 OVC038 16/12 Q1013
 
EGNX - East Midlands, United Kingdom
Updated: 25/06/2017 21:20
Clear
Clear
 Wind from WNW
Wind: WNW 9 mph , 15 km/h, 8 kts
Temperature: 13°C
Dew Point: 7°C
Humidity: 67%
Barometer: 1013 hPa
Summary: Clear
Visibility: greater than 7 miles , 10 km
2017/06/25 20:20 EGNX 252020Z 29008KT CAVOK 13/07 Q1013
EGLC - London City Airp, United Kingdom
Updated: 25/06/2017 21:20
Partly Cloudy
Partly Cloudy
 Wind from W
Wind: W 13 mph , 20 km/h, 11 kts
Temperature: 20°C
Dew Point: 12°C
Humidity: 60%
Barometer: 1013 hPa
Clouds: Partly Cloudy
Visibility: 6 miles , 10 km
Cloud details: Partly Cloudy 1494 m
2017/06/25 20:20 EGLC 252020Z AUTO 28011KT 9999 SCT049 20/12 Q1013
 
EGCC - Manchester Intl, United Kingdom
Updated: 25/06/2017 21:20
Clear
Clear
 Wind from W
Wind: W 6 mph , 9 km/h, 5 kts
Temperature: 14°C
Dew Point: 7°C
Humidity: 63%
Barometer: 1013 hPa
Clouds: Clear
Visibility: 6 miles , 10 km
2017/06/25 20:20 EGCC 252020Z AUTO 28005KT 9999 NCD 14/07 Q1013 NOSIG
EGSS - Stansted Airport, United Kingdom
Updated: 25/06/2017 21:20
Light rain, Overcast
Light rain, Overcast
 Wind from WNW
Wind: WNW 8 mph , 13 km/h, 7 kts
Temperature: 16°C
Dew Point: 14°C
Humidity: 88%
Barometer: 1013 hPa
Summary: Light Rain
Clouds: Overcast
Visibility: 6 miles , 10 km
Cloud details: Mostly Cloudy 518 m
Overcast 884 m
2017/06/25 20:20 EGSS 252020Z AUTO 30007KT 9999 -RA BKN017 OVC029 16/14 Q1013

Metar, brief description

METAR is a format for reporting weather information. A METAR weather report is predominantly used by pilots in fulfillment of a part of a pre-flight weather briefing, and by meteorologists, who use aggregated METAR information to assist in weather forecasting.

Raw METAR is the most popular format in the world for the transmission of weather data. Each METAR report contains essential information about the current weather conditions: Temperature, Dew Point, Barometric Pressure, Wind Speed and Direction, Visibility, Clouds Cover, Current Weather (Rain, Thunderstorms, Hail, Snow and so on...), here is an example of a raw metar report for EGHQ (Newquay airport).
METAR not available